sensor_id;sensor_type;location;lat;lon;timestamp;pressure;altitude;pressure_sealevel;temperature;humidity
51195;BME280;37259;49.972;19.850;2023-02-21T00:00:45;98090;;;10.7;65.7
51195;BME280;37259;49.972;19.850;2023-02-21T00:01:45;98070;;;10.7;65.5
51195;BME280;37259;49.972;19.850;2023-02-21T00:02:45;98070;;;10.7;65.5
51195;BME280;37259;49.972;19.850;2023-02-21T00:03:45;98070;;;10.7;65.5
51195;BME280;37259;49.972;19.850;2023-02-21T00:04:45;98080;;;10.7;65.7
51195;BME280;37259;49.972;19.850;2023-02-21T00:05:45;98080;;;10.7;65.7
51195;BME280;37259;49.972;19.850;2023-02-21T00:06:45;98070;;;10.7;65.5
51195;BME280;37259;49.972;19.850;2023-02-21T00:07:45;98070;;;10.7;65.5
51195;BME280;37259;49.972;19.850;2023-02-21T00:08:45;98060;;;10.6;65.5
51195;BME280;37259;49.972;19.850;2023-02-21T00:09:45;98060;;;10.6;65.5
51195;BME280;37259;49.972;19.850;2023-02-21T00:10:45;98070;;;10.6;65.6
51195;BME280;37259;49.972;19.850;2023-02-21T00:11:45;98070;;;10.6;65.6
51195;BME280;37259;49.972;19.850;2023-02-21T00:12:45;98090;;;10.6;65.9
51195;BME280;37259;49.972;19.850;2023-02-21T00:13:45;98080;;;10.6;66
51195;BME280;37259;49.972;19.850;2023-02-21T00:14:45;98090;;;10.6;66
51195;BME280;37259;49.972;19.850;2023-02-21T00:15:45;98080;;;10.6;66
51195;BME280;37259;49.972;19.850;2023-02-21T00:16:45;98080;;;10.6;66.2
51195;BME280;37259;49.972;19.850;2023-02-21T00:17:45;98080;;;10.6;66.2
51195;BME280;37259;49.972;19.850;2023-02-21T00:18:45;98080;;;10.6;66.3
51195;BME280;37259;49.972;19.850;2023-02-21T00:19:45;98090;;;10.5;66.4
51195;BME280;37259;49.972;19.850;2023-02-21T00:20:45;98090;;;10.5;66.4
51195;BME280;37259;49.972;19.850;2023-02-21T00:21:45;98090;;;10.5;66.4
51195;BME280;37259;49.972;19.850;2023-02-21T00:22:45;98080;;;10.5;66.6
51195;BME280;37259;49.972;19.850;2023-02-21T00:23:45;98080;;;10.5;66.6
51195;BME280;37259;49.972;19.850;2023-02-21T00:24:45;98080;;;10.5;66.6
51195;BME280;37259;49.972;19.850;2023-02-21T00:25:45;98070;;;10.5;66.5
51195;BME280;37259;49.972;19.850;2023-02-21T00:26:45;98070;;;10.5;66.5
51195;BME280;37259;49.972;19.850;2023-02-21T00:27:45;98080;;;10.5;66.4
51195;BME280;37259;49.972;19.850;2023-02-21T00:28:45;98080;;;10.5;66.3
51195;BME280;37259;49.972;19.850;2023-02-21T00:29:45;98070;;;10.5;66.2
51195;BME280;37259;49.972;19.850;2023-02-21T00:30:45;98070;;;10.5;66.2
51195;BME280;37259;49.972;19.850;2023-02-21T00:31:45;98060;;;10.5;66.2
51195;BME280;37259;49.972;19.850;2023-02-21T00:32:45;98070;;;10.5;66.3
51195;BME280;37259;49.972;19.850;2023-02-21T00:33:45;98070;;;10.5;66.3
51195;BME280;37259;49.972;19.850;2023-02-21T00:34:45;98080;;;10.5;66.4
51195;BME280;37259;49.972;19.850;2023-02-21T00:35:45;98080;;;10.5;66.4
51195;BME280;37259;49.972;19.850;2023-02-21T00:36:45;98070;;;10.5;66.4
51195;BME280;37259;49.972;19.850;2023-02-21T00:37:47;98070;;;10.5;66.4
51195;BME280;37259;49.972;19.850;2023-02-21T00:38:45;98060;;;10.5;66.5
51195;BME280;37259;49.972;19.850;2023-02-21T00:39:45;98060;;;10.5;66.5
51195;BME280;37259;49.972;19.850;2023-02-21T00:40:45;98060;;;10.4;66.5
51195;BME280;37259;49.972;19.850;2023-02-21T00:41:45;98060;;;10.4;66.5
51195;BME280;37259;49.972;19.850;2023-02-21T00:42:45;98060;;;10.4;66.4
51195;BME280;37259;49.972;19.850;2023-02-21T00:43:45;98060;;;10.4;66.4
51195;BME280;37259;49.972;19.850;2023-02-21T00:44:45;98060;;;10.4;66.3
51195;BME280;37259;49.972;19.850;2023-02-21T00:45:45;98060;;;10.4;66.3
51195;BME280;37259;49.972;19.850;2023-02-21T00:46:45;98060;;;10.4;66.3
51195;BME280;37259;49.972;19.850;2023-02-21T00:47:45;98060;;;10.5;66
51195;BME280;37259;49.972;19.850;2023-02-21T00:48:45;98060;;;10.5;66
51195;BME280;37259;49.972;19.850;2023-02-21T00:49:45;98070;;;10.4;66.2
51195;BME280;37259;49.972;19.850;2023-02-21T00:50:45;98050;;;10.4;66.3
51195;BME280;37259;49.972;19.850;2023-02-21T00:51:45;98060;;;10.4;66.3
51195;BME280;37259;49.972;19.850;2023-02-21T00:52:45;98060;;;10.4;66.3
51195;BME280;37259;49.972;19.850;2023-02-21T00:53:45;98070;;;10.4;66.2
51195;BME280;37259;49.972;19.850;2023-02-21T00:54:45;98060;;;10.4;66.3
51195;BME280;37259;49.972;19.850;2023-02-21T00:55:45;98060;;;10.4;66.2
51195;BME280;37259;49.972;19.850;2023-02-21T00:56:45;98050;;;10.4;66.5
51195;BME280;37259;49.972;19.850;2023-02-21T00:57:45;98050;;;10.4;66.5
51195;BME280;37259;49.972;19.850;2023-02-21T00:58:45;98070;;;10.4;66.5
51195;BME280;37259;49.972;19.850;2023-02-21T00:59:45;98070;;;10.4;66.5
51195;BME280;37259;49.972;19.850;2023-02-21T01:00:45;98070;;;10.4;66.6
51195;BME280;37259;49.972;19.850;2023-02-21T01:01:45;98060;;;10.3;66.5
51195;BME280;37259;49.972;19.850;2023-02-21T01:02:45;98060;;;10.3;66.5
51195;BME280;37259;49.972;19.850;2023-02-21T01:03:45;98070;;;10.3;66.7
51195;BME280;37259;49.972;19.850;2023-02-21T01:04:45;98070;;;10.3;66.7
51195;BME280;37259;49.972;19.850;2023-02-21T01:05:45;98060;;;10.3;66.7
51195;BME280;37259;49.972;19.850;2023-02-21T01:06:45;98060;;;10.3;66.7
51195;BME280;37259;49.972;19.850;2023-02-21T01:07:45;98050;;;10.3;66.9
51195;BME280;37259;49.972;19.850;2023-02-21T01:08:45;98060;;;10.3;66.9
51195;BME280;37259;49.972;19.850;2023-02-21T01:09:45;98060;;;10.3;66.9
51195;BME280;37259;49.972;19.850;2023-02-21T01:10:45;98060;;;10.3;66.9
51195;BME280;37259;49.972;19.850;2023-02-21T01:11:45;98060;;;10.3;66.7
51195;BME280;37259;49.972;19.850;2023-02-21T01:12:45;98060;;;10.3;66.7
51195;BME280;37259;49.972;19.850;2023-02-21T01:13:45;98060;;;10.3;66.7
51195;BME280;37259;49.972;19.850;2023-02-21T01:14:45;98060;;;10.3;67
51195;BME280;37259;49.972;19.850;2023-02-21T01:15:45;98050;;;10.3;67
51195;BME280;37259;49.972;19.850;2023-02-21T01:16:45;98050;;;10.3;67
51195;BME280;37259;49.972;19.850;2023-02-21T01:17:45;98060;;;10.3;67.2
51195;BME280;37259;49.972;19.850;2023-02-21T01:18:45;98060;;;10.3;67.2
51195;BME280;37259;49.972;19.850;2023-02-21T01:19:45;98050;;;10.3;67.4
51195;BME280;37259;49.972;19.850;2023-02-21T01:20:45;98060;;;10.2;67.4
51195;BME280;37259;49.972;19.850;2023-02-21T01:21:45;98060;;;10.2;67.4
51195;BME280;37259;49.972;19.850;2023-02-21T01:22:45;98060;;;10.2;67.5
51195;BME280;37259;49.972;19.850;2023-02-21T01:23:45;98060;;;10.2;67.5
51195;BME280;37259;49.972;19.850;2023-02-21T01:24:47;98050;;;10.2;67.7
51195;BME280;37259;49.972;19.850;2023-02-21T01:25:45;98050;;;10.2;67.7
51195;BME280;37259;49.972;19.850;2023-02-21T01:26:45;98050;;;10.2;67.9
51195;BME280;37259;49.972;19.850;2023-02-21T01:27:45;98050;;;10.2;67.9
51195;BME280;37259;49.972;19.850;2023-02-21T01:28:45;98060;;;10.2;67.9
51195;BME280;37259;49.972;19.850;2023-02-21T01:29:46;98060;;;10.2;67.9
51195;BME280;37259;49.972;19.850;2023-02-21T01:30:45;98040;;;10.2;67.9
51195;BME280;37259;49.972;19.850;2023-02-21T01:31:45;98040;;;10.2;68
51195;BME280;37259;49.972;19.850;2023-02-21T01:32:45;98040;;;10.2;68
51195;BME280;37259;49.972;19.850;2023-02-21T01:33:45;98040;;;10.2;68
51195;BME280;37259;49.972;19.850;2023-02-21T01:34:45;98040;;;10.2;68
51195;BME280;37259;49.972;19.850;2023-02-21T01:35:45;98030;;;10.2;67.9
51195;BME280;37259;49.972;19.850;2023-02-21T01:36:45;98030;;;10.2;67.9
51195;BME280;37259;49.972;19.850;2023-02-21T01:37:45;98030;;;10.2;67.9
51195;BME280;37259;49.972;19.850;2023-02-21T01:38:45;98030;;;10.2;67.9
51195;BME280;37259;49.972;19.850;2023-02-21T01:39:45;98040;;;10.2;67.9
51195;BME280;37259;49.972;19.850;2023-02-21T01:40:45;98040;;;10.2;67.9
51195;BME280;37259;49.972;19.850;2023-02-21T01:41:45;98040;;;10.2;67.9
51195;BME280;37259;49.972;19.850;2023-02-21T01:42:45;98040;;;10.2;67.8
51195;BME280;37259;49.972;19.850;2023-02-21T01:44:01;98040;;;10.2;67.8
51195;BME280;37259;49.972;19.850;2023-02-21T01:44:45;98040;;;10.2;67.7
51195;BME280;37259;49.972;19.850;2023-02-21T01:45:46;98040;;;10.2;67.8
51195;BME280;37259;49.972;19.850;2023-02-21T01:46:45;98040;;;10.2;67.8
51195;BME280;37259;49.972;19.850;2023-02-21T01:47:45;98040;;;10.2;67.6
51195;BME280;37259;49.972;19.850;2023-02-21T01:48:45;98040;;;10.2;67.6
51195;BME280;37259;49.972;19.850;2023-02-21T01:49:45;98030;;;10.2;67.5
51195;BME280;37259;49.972;19.850;2023-02-21T01:50:45;98030;;;10.2;67.5
51195;BME280;37259;49.972;19.850;2023-02-21T01:51:45;98030;;;10.2;67.6
51195;BME280;37259;49.972;19.850;2023-02-21T01:52:45;98030;;;10.2;67.8
51195;BME280;37259;49.972;19.850;2023-02-21T01:53:45;98030;;;10.2;67.8
51195;BME280;37259;49.972;19.850;2023-02-21T01:54:46;98040;;;10.2;67.7
51195;BME280;37259;49.972;19.850;2023-02-21T01:55:45;98040;;;10.2;67.7
51195;BME280;37259;49.972;19.850;2023-02-21T01:56:45;98020;;;10.2;67.8
51195;BME280;37259;49.972;19.850;2023-02-21T01:57:45;98030;;;10.2;67.9
51195;BME280;37259;49.972;19.850;2023-02-21T01:58:45;98030;;;10.2;67.9
51195;BME280;37259;49.972;19.850;2023-02-21T01:59:45;98040;;;10.2;68
51195;BME280;37259;49.972;19.850;2023-02-21T02:00:45;98040;;;10.2;68
51195;BME280;37259;49.972;19.850;2023-02-21T02:01:46;98020;;;10.2;68
51195;BME280;37259;49.972;19.850;2023-02-21T02:02:47;98020;;;10.2;68
51195;BME280;37259;49.972;19.850;2023-02-21T02:03:45;98020;;;10.2;68.1
51195;BME280;37259;49.972;19.850;2023-02-21T02:04:45;98020;;;10.2;68.1
51195;BME280;37259;49.972;19.850;2023-02-21T02:05:46;98020;;;10.2;68.3
51195;BME280;37259;49.972;19.850;2023-02-21T02:06:45;98010;;;10.2;68.3
51195;BME280;37259;49.972;19.850;2023-02-21T02:07:45;98010;;;10.2;68.3
51195;BME280;37259;49.972;19.850;2023-02-21T02:08:45;98020;;;10.2;68.5
51195;BME280;37259;49.972;19.850;2023-02-21T02:09:45;98010;;;10.2;68.5
51195;BME280;37259;49.972;19.850;2023-02-21T02:10:45;98020;;;10.2;68.4
51195;BME280;37259;49.972;19.850;2023-02-21T02:11:49;98020;;;10.2;68.4
51195;BME280;37259;49.972;19.850;2023-02-21T02:12:50;98030;;;10.2;68.6
51195;BME280;37259;49.972;19.850;2023-02-21T02:13:49;98020;;;10.2;68.7
51195;BME280;37259;49.972;19.850;2023-02-21T02:15:48;98020;;;10.2;68.5
51195;BME280;37259;49.972;19.850;2023-02-21T02:15:52;98020;;;10.2;68.5
51195;BME280;37259;49.972;19.850;2023-02-21T02:16:46;98020;;;10.2;68.7
51195;BME280;37259;49.972;19.850;2023-02-21T02:17:51;98020;;;10.2;68.7
51195;BME280;37259;49.972;19.850;2023-02-21T02:18:49;98020;;;10.2;68.8
51195;BME280;37259;49.972;19.850;2023-02-21T02:19:54;98020;;;10.2;68.8
51195;BME280;37259;49.972;19.850;2023-02-21T02:20:52;98020;;;10.2;68.8
51195;BME280;37259;49.972;19.850;2023-02-21T02:23:05;98020;;;10.1;68.9
51195;BME280;37259;49.972;19.850;2023-02-21T02:23:59;98020;;;10.1;69
51195;BME280;37259;49.972;19.850;2023-02-21T02:24:49;98020;;;10.1;69
51195;BME280;37259;49.972;19.850;2023-02-21T02:25:51;98010;;;10.1;69.1
51195;BME280;37259;49.972;19.850;2023-02-21T02:26:53;98010;;;10.1;69.1
51195;BME280;37259;49.972;19.850;2023-02-21T02:27:48;98020;;;10.1;69.1
51195;BME280;37259;49.972;19.850;2023-02-21T02:28:48;98020;;;10.1;69.1
51195;BME280;37259;49.972;19.850;2023-02-21T02:30:25;98020;;;10.1;69.3
51195;BME280;37259;49.972;19.850;2023-02-21T02:30:51;98020;;;10.1;69.3
51195;BME280;37259;49.972;19.850;2023-02-21T02:31:52;98020;;;10.1;69.6
51195;BME280;37259;49.972;19.850;2023-02-21T02:32:50;98020;;;10.1;69.6
51195;BME280;37259;49.972;19.850;2023-02-21T02:33:53;98020;;;10.1;69.6
51195;BME280;37259;49.972;19.850;2023-02-21T02:34:46;98020;;;10.1;69.6
51195;BME280;37259;49.972;19.850;2023-02-21T02:35:45;98020;;;10.1;69.6
51195;BME280;37259;49.972;19.850;2023-02-21T02:36:45;98020;;;10.1;69.6
51195;BME280;37259;49.972;19.850;2023-02-21T02:37:46;98020;;;10.1;69.6
51195;BME280;37259;49.972;19.850;2023-02-21T02:38:47;98020;;;10.1;69.6
51195;BME280;37259;49.972;19.850;2023-02-21T02:39:46;98010;;;10.1;69.7
51195;BME280;37259;49.972;19.850;2023-02-21T02:40:45;98010;;;10.1;69.7
51195;BME280;37259;49.972;19.850;2023-02-21T02:41:46;98010;;;10.1;69.7
51195;BME280;37259;49.972;19.850;2023-02-21T02:42:48;98010;;;10;69.9
51195;BME280;37259;49.972;19.850;2023-02-21T02:43:47;98010;;;10;69.9
51195;BME280;37259;49.972;19.850;2023-02-21T02:44:46;98010;;;10;70
51195;BME280;37259;49.972;19.850;2023-02-21T02:45:46;98010;;;10;70
51195;BME280;37259;49.972;19.850;2023-02-21T02:46:45;98010;;;10;70.2
51195;BME280;37259;49.972;19.850;2023-02-21T02:47:46;98010;;;10;70.2
51195;BME280;37259;49.972;19.850;2023-02-21T02:48:45;98010;;;10;70.3
51195;BME280;37259;49.972;19.850;2023-02-21T02:49:45;98010;;;10;70.4
51195;BME280;37259;49.972;19.850;2023-02-21T02:50:46;98020;;;10;70.4
51195;BME280;37259;49.972;19.850;2023-02-21T02:51:45;98020;;;10;70.5
51195;BME280;37259;49.972;19.850;2023-02-21T02:52:49;98030;;;10;70.6
51195;BME280;37259;49.972;19.850;2023-02-21T02:53:45;98010;;;10;70.8
51195;BME280;37259;49.972;19.850;2023-02-21T02:54:54;98010;;;10;70.8
51195;BME280;37259;49.972;19.850;2023-02-21T02:55:46;98020;;;10;70.9
51195;BME280;37259;49.972;19.850;2023-02-21T02:56:45;98020;;;10;70.9
51195;BME280;37259;49.972;19.850;2023-02-21T02:57:45;98020;;;9.9;71.4
51195;BME280;37259;49.972;19.850;2023-02-21T02:58:46;98020;;;9.9;71.4
51195;BME280;37259;49.972;19.850;2023-02-21T02:59:45;98030;;;9.9;72
51195;BME280;37259;49.972;19.850;2023-02-21T03:00:47;98030;;;9.9;72
51195;BME280;37259;49.972;19.850;2023-02-21T03:01:51;98020;;;9.9;72.4
51195;BME280;37259;49.972;19.850;2023-02-21T03:02:48;98030;;;9.8;72.7
51195;BME280;37259;49.972;19.850;2023-02-21T03:03:50;98030;;;9.8;72.7
51195;BME280;37259;49.972;19.850;2023-02-21T03:04:56;98030;;;9.8;73.6
51195;BME280;37259;49.972;19.850;2023-02-21T03:05:49;98030;;;9.8;73.8
51195;BME280;37259;49.972;19.850;2023-02-21T03:06:46;98030;;;9.8;73.8
51195;BME280;37259;49.972;19.850;2023-02-21T03:07:47;98020;;;9.7;74.1
51195;BME280;37259;49.972;19.850;2023-02-21T03:08:48;98020;;;9.7;74.4
51195;BME280;37259;49.972;19.850;2023-02-21T03:09:46;98020;;;9.7;74.4
51195;BME280;37259;49.972;19.850;2023-02-21T03:10:46;98020;;;9.7;74.7
51195;BME280;37259;49.972;19.850;2023-02-21T03:11:47;98030;;;9.7;74.8
51195;BME280;37259;49.972;19.850;2023-02-21T03:12:47;98030;;;9.7;74.8
51195;BME280;37259;49.972;19.850;2023-02-21T03:13:46;98030;;;9.6;75.1
51195;BME280;37259;49.972;19.850;2023-02-21T03:14:45;98020;;;9.6;75.2
51195;BME280;37259;49.972;19.850;2023-02-21T03:15:46;98030;;;9.6;75.4
51195;BME280;37259;49.972;19.850;2023-02-21T03:16:46;98020;;;9.6;75.5
51195;BME280;37259;49.972;19.850;2023-02-21T03:17:45;98020;;;9.6;75.5
51195;BME280;37259;49.972;19.850;2023-02-21T03:18:47;98020;;;9.5;75.6
51195;BME280;37259;49.972;19.850;2023-02-21T03:19:45;98020;;;9.5;75.6
51195;BME280;37259;49.972;19.850;2023-02-21T03:20:45;98020;;;9.5;75.7
51195;BME280;37259;49.972;19.850;2023-02-21T03:21:46;98020;;;9.5;75.7
51195;BME280;37259;49.972;19.850;2023-02-21T03:22:45;98020;;;9.5;75.7
51195;BME280;37259;49.972;19.850;2023-02-21T03:23:45;98020;;;9.5;76.1
51195;BME280;37259;49.972;19.850;2023-02-21T03:24:45;98020;;;9.5;76.1
51195;BME280;37259;49.972;19.850;2023-02-21T03:25:45;98030;;;9.5;76.3
51195;BME280;37259;49.972;19.850;2023-02-21T03:26:46;98020;;;9.5;76.4
51195;BME280;37259;49.972;19.850;2023-02-21T03:27:45;98020;;;9.5;76.4
51195;BME280;37259;49.972;19.850;2023-02-21T03:28:45;98020;;;9.5;76.4
51195;BME280;37259;49.972;19.850;2023-02-21T03:29:45;98020;;;9.5;76.4
51195;BME280;37259;49.972;19.850;2023-02-21T03:30:45;98030;;;9.5;76.8
51195;BME280;37259;49.972;19.850;2023-02-21T03:31:48;98030;;;9.5;76.8
51195;BME280;37259;49.972;19.850;2023-02-21T03:32:46;98020;;;9.4;77.1
51195;BME280;37259;49.972;19.850;2023-02-21T03:33:45;98030;;;9.4;77.3
51195;BME280;37259;49.972;19.850;2023-02-21T03:34:45;98030;;;9.4;77.3
51195;BME280;37259;49.972;19.850;2023-02-21T03:35:45;98030;;;9.3;77.7
51195;BME280;37259;49.972;19.850;2023-02-21T03:36:45;98030;;;9.3;77.7
51195;BME280;37259;49.972;19.850;2023-02-21T03:37:46;98030;;;9.3;78.5
51195;BME280;37259;49.972;19.850;2023-02-21T03:38:45;98030;;;9.3;78.5
51195;BME280;37259;49.972;19.850;2023-02-21T03:39:45;98030;;;9.2;79
51195;BME280;37259;49.972;19.850;2023-02-21T03:40:45;98030;;;9.2;79.2
51195;BME280;37259;49.972;19.850;2023-02-21T03:41:45;98030;;;9.2;79.2
51195;BME280;37259;49.972;19.850;2023-02-21T03:42:45;98030;;;9.2;79.2
51195;BME280;37259;49.972;19.850;2023-02-21T03:43:45;98030;;;9.2;79.2
51195;BME280;37259;49.972;19.850;2023-02-21T03:44:45;98030;;;9.2;79.3
51195;BME280;37259;49.972;19.850;2023-02-21T03:45:45;98030;;;9.2;79.3
51195;BME280;37259;49.972;19.850;2023-02-21T03:46:45;98040;;;9.2;79.4
51195;BME280;37259;49.972;19.850;2023-02-21T03:47:45;98030;;;9.1;79.6
51195;BME280;37259;49.972;19.850;2023-02-21T03:48:45;98030;;;9.1;79.6
51195;BME280;37259;49.972;19.850;2023-02-21T03:49:45;98020;;;9.1;79.8
51195;BME280;37259;49.972;19.850;2023-02-21T03:50:45;98020;;;9.1;79.8
51195;BME280;37259;49.972;19.850;2023-02-21T03:51:45;98040;;;9.1;80.3
51195;BME280;37259;49.972;19.850;2023-02-21T03:52:45;98040;;;9;80.6
51195;BME280;37259;49.972;19.850;2023-02-21T03:53:45;98040;;;9;80.6
51195;BME280;37259;49.972;19.850;2023-02-21T03:54:45;98040;;;9;81.1
51195;BME280;37259;49.972;19.850;2023-02-21T03:55:45;98040;;;9;81.1
51195;BME280;37259;49.972;19.850;2023-02-21T03:56:45;98030;;;8.9;81.5
51195;BME280;37259;49.972;19.850;2023-02-21T03:57:45;98030;;;8.9;81.5
51195;BME280;37259;49.972;19.850;2023-02-21T03:58:45;98040;;;8.9;82
51195;BME280;37259;49.972;19.850;2023-02-21T03:59:45;98030;;;8.9;82
51195;BME280;37259;49.972;19.850;2023-02-21T04:00:45;98030;;;8.9;82
51195;BME280;37259;49.972;19.850;2023-02-21T04:01:45;98040;;;8.8;82.2
51195;BME280;37259;49.972;19.850;2023-02-21T04:02:45;98050;;;8.8;82.3
51195;BME280;37259;49.972;19.850;2023-02-21T04:03:45;98050;;;8.8;82.3
51195;BME280;37259;49.972;19.850;2023-02-21T04:04:45;98050;;;8.8;82.5
51195;BME280;37259;49.972;19.850;2023-02-21T04:05:45;98050;;;8.8;82.5
51195;BME280;37259;49.972;19.850;2023-02-21T04:06:45;98030;;;8.7;82.7
51195;BME280;37259;49.972;19.850;2023-02-21T04:07:45;98040;;;8.7;82.8
51195;BME280;37259;49.972;19.850;2023-02-21T04:08:45;98040;;;8.7;82.8
51195;BME280;37259;49.972;19.850;2023-02-21T04:09:45;98040;;;8.7;83
51195;BME280;37259;49.972;19.850;2023-02-21T04:10:45;98050;;;8.7;83
51195;BME280;37259;49.972;19.850;2023-02-21T04:11:45;98040;;;8.7;83
51195;BME280;37259;49.972;19.850;2023-02-21T04:12:45;98040;;;8.7;83
51195;BME280;37259;49.972;19.850;2023-02-21T04:13:45;98030;;;8.6;83.2
51195;BME280;37259;49.972;19.850;2023-02-21T04:14:45;98030;;;8.6;83.2
51195;BME280;37259;49.972;19.850;2023-02-21T04:15:45;98040;;;8.7;83.4
51195;BME280;37259;49.972;19.850;2023-02-21T04:16:45;98040;;;8.7;83.4
51195;BME280;37259;49.972;19.850;2023-02-21T04:17:45;98050;;;8.6;83.7
51195;BME280;37259;49.972;19.850;2023-02-21T04:18:45;98050;;;8.6;83.7
51195;BME280;37259;49.972;19.850;2023-02-21T04:19:45;98050;;;8.6;84
51195;BME280;37259;49.972;19.850;2023-02-21T04:20:45;98040;;;8.6;84.1
51195;BME280;37259;49.972;19.850;2023-02-21T04:21:45;98040;;;8.6;84.1
51195;BME280;37259;49.972;19.850;2023-02-21T04:22:45;98040;;;8.6;84.3
51195;BME280;37259;49.972;19.850;2023-02-21T04:23:45;98040;;;8.6;84.3
51195;BME280;37259;49.972;19.850;2023-02-21T04:24:45;98040;;;8.6;84.3
51195;BME280;37259;49.972;19.850;2023-02-21T04:25:45;98050;;;8.5;84.3
51195;BME280;37259;49.972;19.850;2023-02-21T04:26:45;98050;;;8.5;84.3
51195;BME280;37259;49.972;19.850;2023-02-21T04:27:45;98040;;;8.5;84.4
51195;BME280;37259;49.972;19.850;2023-02-21T04:28:45;98040;;;8.5;84.4
51195;BME280;37259;49.972;19.850;2023-02-21T04:29:45;98050;;;8.5;84.3
51195;BME280;37259;49.972;19.850;2023-02-21T04:30:45;98050;;;8.5;84.3
51195;BME280;37259;49.972;19.850;2023-02-21T04:31:45;98040;;;8.5;84.2
51195;BME280;37259;49.972;19.850;2023-02-21T04:32:45;98040;;;8.5;84.2
51195;BME280;37259;49.972;19.850;2023-02-21T04:33:45;98040;;;8.5;84.1
51195;BME280;37259;49.972;19.850;2023-02-21T04:34:45;98040;;;8.5;84.1
51195;BME280;37259;49.972;19.850;2023-02-21T04:35:45;98040;;;8.5;84
51195;BME280;37259;49.972;19.850;2023-02-21T04:36:45;98040;;;8.5;84
51195;BME280;37259;49.972;19.850;2023-02-21T04:37:45;98040;;;8.5;84
51195;BME280;37259;49.972;19.850;2023-02-21T04:38:45;98040;;;8.5;83.9
51195;BME280;37259;49.972;19.850;2023-02-21T04:39:45;98040;;;8.5;83.9
51195;BME280;37259;49.972;19.850;2023-02-21T04:40:45;98050;;;8.5;84.3
51195;BME280;37259;49.972;19.850;2023-02-21T04:41:45;98050;;;8.5;84.3
51195;BME280;37259;49.972;19.850;2023-02-21T04:42:45;98040;;;8.5;84.4
51195;BME280;37259;49.972;19.850;2023-02-21T04:43:45;98040;;;8.5;84.4
51195;BME280;37259;49.972;19.850;2023-02-21T04:44:45;98050;;;8.5;84.4
51195;BME280;37259;49.972;19.850;2023-02-21T04:45:45;98050;;;8.5;84.4
51195;BME280;37259;49.972;19.850;2023-02-21T04:46:45;98040;;;8.5;84.4
51195;BME280;37259;49.972;19.850;2023-02-21T04:47:45;98040;;;8.5;84.4
51195;BME280;37259;49.972;19.850;2023-02-21T04:48:46;98040;;;8.4;84.4
51195;BME280;37259;49.972;19.850;2023-02-21T04:49:45;98040;;;8.4;84.4
51195;BME280;37259;49.972;19.850;2023-02-21T04:50:45;98040;;;8.5;84.4
51195;BME280;37259;49.972;19.850;2023-02-21T04:51:45;98040;;;8.5;84.4
51195;BME280;37259;49.972;19.850;2023-02-21T04:52:45;98050;;;8.5;84.4
51195;BME280;37259;49.972;19.850;2023-02-21T04:53:45;98040;;;8.4;84.5
51195;BME280;37259;49.972;19.850;2023-02-21T04:54:45;98040;;;8.4;84.5
51195;BME280;37259;49.972;19.850;2023-02-21T04:55:45;98050;;;8.4;84.8
51195;BME280;37259;49.972;19.850;2023-02-21T04:56:45;98050;;;8.4;85
51195;BME280;37259;49.972;19.850;2023-02-21T04:57:45;98050;;;8.4;85
51195;BME280;37259;49.972;19.850;2023-02-21T04:58:45;98070;;;8.3;85.6
51195;BME280;37259;49.972;19.850;2023-02-21T04:59:45;98060;;;8.3;85.8
51195;BME280;37259;49.972;19.850;2023-02-21T05:00:45;98060;;;8.3;86
51195;BME280;37259;49.972;19.850;2023-02-21T05:01:45;98060;;;8.3;86.2
51195;BME280;37259;49.972;19.850;2023-02-21T05:02:45;98060;;;8.2;86.2
51195;BME280;37259;49.972;19.850;2023-02-21T05:03:45;98070;;;8.2;87
51195;BME280;37259;49.972;19.850;2023-02-21T05:04:45;98060;;;8.2;87.2
51195;BME280;37259;49.972;19.850;2023-02-21T05:05:45;98070;;;8.1;87.4
51195;BME280;37259;49.972;19.850;2023-02-21T05:06:45;98080;;;8.1;87.5
51195;BME280;37259;49.972;19.850;2023-02-21T05:07:45;98080;;;8.1;87.6
51195;BME280;37259;49.972;19.850;2023-02-21T05:08:45;98080;;;8.1;87.6
51195;BME280;37259;49.972;19.850;2023-02-21T05:09:45;98070;;;8.1;87.8
51195;BME280;37259;49.972;19.850;2023-02-21T05:10:45;98070;;;8.1;88
51195;BME280;37259;49.972;19.850;2023-02-21T05:11:45;98070;;;8.1;88
51195;BME280;37259;49.972;19.850;2023-02-21T05:12:45;98060;;;8;88.4
51195;BME280;37259;49.972;19.850;2023-02-21T05:13:45;98070;;;8;88.7
51195;BME280;37259;49.972;19.850;2023-02-21T05:14:45;98070;;;8;88.7
51195;BME280;37259;49.972;19.850;2023-02-21T05:15:45;98080;;;7.9;89
51195;BME280;37259;49.972;19.850;2023-02-21T05:16:45;98080;;;7.9;89
51195;BME280;37259;49.972;19.850;2023-02-21T05:17:45;98070;;;7.9;89.2
51195;BME280;37259;49.972;19.850;2023-02-21T05:18:46;98070;;;7.9;89.4
51195;BME280;37259;49.972;19.850;2023-02-21T05:19:45;98070;;;7.9;89.4
51195;BME280;37259;49.972;19.850;2023-02-21T05:20:45;98070;;;7.9;89.4
51195;BME280;37259;49.972;19.850;2023-02-21T05:22:47;98070;;;7.9;89.7
51195;BME280;37259;49.972;19.850;2023-02-21T05:23:45;98070;;;7.9;89.7
51195;BME280;37259;49.972;19.850;2023-02-21T05:24:45;98070;;;7.9;90
51195;BME280;37259;49.972;19.850;2023-02-21T05:25:45;98070;;;7.9;90
51195;BME280;37259;49.972;19.850;2023-02-21T05:26:45;98070;;;7.9;90
51195;BME280;37259;49.972;19.850;2023-02-21T05:27:45;98070;;;7.9;90
51195;BME280;37259;49.972;19.850;2023-02-21T05:28:45;98070;;;7.8;90.2
51195;BME280;37259;49.972;19.850;2023-02-21T05:29:45;98070;;;7.8;90.2
51195;BME280;37259;49.972;19.850;2023-02-21T05:30:45;98070;;;7.8;90.4
51195;BME280;37259;49.972;19.850;2023-02-21T05:31:45;98070;;;7.8;90.4
51195;BME280;37259;49.972;19.850;2023-02-21T05:32:45;98070;;;7.8;90.6
51195;BME280;37259;49.972;19.850;2023-02-21T05:33:45;98070;;;7.7;90.7
51195;BME280;37259;49.972;19.850;2023-02-21T05:34:45;98060;;;7.7;90.7
51195;BME280;37259;49.972;19.850;2023-02-21T05:35:45;98060;;;7.7;90.7
51195;BME280;37259;49.972;19.850;2023-02-21T05:36:45;98060;;;7.7;90.8
51195;BME280;37259;49.972;19.850;2023-02-21T05:37:45;98060;;;7.7;90.8
51195;BME280;37259;49.972;19.850;2023-02-21T05:38:46;98060;;;7.7;90.8
51195;BME280;37259;49.972;19.850;2023-02-21T05:39:45;98060;;;7.7;90.9
51195;BME280;37259;49.972;19.850;2023-02-21T05:40:45;98060;;;7.7;90.9
51195;BME280;37259;49.972;19.850;2023-02-21T05:41:46;98060;;;7.7;90.9